Silia — WDG2034 — position and weather

sailwx.info

Track history (hours):
 
Tides and Currents Weather Stations Pressure Air Temp Water Temp Dewpoint Dewpoint Depression Visibility Wind Speed Wind Dir Waves Ship Positions

Silia

Owner: greger pacific marine, napa, CA. More information available from US FCC via Universal Licensing System and Coast Guard Vessel Documentation Center.

Last reported at 2016-Mar-24 22:05 UTC. Time now 2016-May-02 23:13 UTC.
Position N 37°49' W 122°18'.
Warning: this ship's position is 39 days out of date.

Length 17 m; draft 3 m.

Type: Tug. MMSI: 367511460.

Date/timePositionNaut miles runAvg speedWind from/ knotsBaromVisibWave heightAir tempDewpointWater temp
2016-Mar-24 22:05N 37°49' W 122°18'1 1.5
2016-Mar-24 21:33N 37°49' W 122°19'1 1.0
2016-Mar-24 20:33N 37°48' W 122°19'0 0.2
2016-Mar-24 19:34N 37°48' W 122°19'0 0.1
2016-Mar-24 18:33N 37°48' W 122°19'0 0.2
2016-Mar-24 17:33N 37°48' W 122°19'0 0.0
2016-Mar-24 16:33N 37°48' W 122°20'0 0.0
2016-Mar-24 15:34N 37°48' W 122°20'0 0.2
2016-Mar-24 14:33N 37°48' W 122°19'0 0.1
2016-Mar-24 13:33N 37°48' W 122°20'2 0.1
2016-Mar-24 01:33N 37°49' W 122°18'2 1.6
2016-Mar-24 00:33N 37°48' W 122°20'0 0.2
2016-Mar-23 23:33N 37°48' W 122°19'0 0.2
2016-Mar-23 22:34N 37°48' W 122°19'0 0.2
2016-Mar-23 21:33N 37°48' W 122°19'0 0.3
2016-Mar-23 20:33N 37°48' W 122°20'0 0.2
2016-Mar-23 19:33N 37°48' W 122°19'0 0.1
2016-Mar-23 18:33N 37°48' W 122°19'0 0.2
2016-Mar-23 17:33N 37°48' W 122°19'0 0.1
2016-Mar-23 16:33N 37°48' W 122°19'0 0.1
2016-Mar-23 15:33N 37°48' W 122°19'0 0.0
2016-Mar-23 14:34N 37°48' W 122°19'1 1.1
2016-Mar-23 13:33N 37°49' W 122°20'1 0.9
2016-Mar-23 12:33N 37°49' W 122°18'0 0.0
2016-Mar-23 04:20N 37°49' W 122°18'5 6.3
2016-Mar-23 03:34N 37°52' W 122°24'9 8.1
2016-Mar-23 02:23N 38°01' W 122°23'7 3.5
2016-Mar-23 00:25N 38°04' W 122°15'8 7.1
2016-Mar-22 23:18N 38°00' W 122°24'5 6.4
2016-Mar-22 22:33N 37°56' W 122°26'8 8.1
2016-Mar-22 21:33N 37°49' W 122°21'  
2016-Mar-18 07:05N 37°49' W 122°18'0 0.0
2016-Mar-18 06:33N 37°49' W 122°18'0 0.0
2016-Mar-18 05:34N 37°49' W 122°18'3 2.6
2016-Mar-18 04:34N 37°50' W 122°22'6 6.4
2016-Mar-18 03:33N 37°55' W 122°26'0 0.0
2016-Mar-18 02:33N 37°55' W 122°26'0 0.1
2016-Mar-18 01:34N 37°55' W 122°26'11 5.6
2016-Mar-17 23:33N 38°03' W 122°17'36 5.8
2016-Mar-17 17:18N 38°03' W 121°31'5 6.9
2016-Mar-17 16:34N 37°60' W 121°26'4 4.3
2016-Mar-17 15:34N 37°57' W 121°21'0 0.0
2016-Mar-17 14:33N 37°57' W 121°21'0 0.0
2016-Mar-17 13:34N 37°57' W 121°21'0 0.0
2016-Mar-17 12:34N 37°57' W 121°21'0 0.0
2016-Mar-17 11:33N 37°57' W 121°21'0 0.0
2016-Mar-17 10:33N 37°57' W 121°21'0 0.0
2016-Mar-17 09:33N 37°57' W 121°21'0 0.0
2016-Mar-17 08:33N 37°57' W 121°21'0 0.0
2016-Mar-17 07:33N 37°57' W 121°21'0 0.0
2016-Mar-17 06:34N 37°57' W 121°21'0 0.0
2016-Mar-17 05:34N 37°57' W 121°21'0 0.0
2016-Mar-17 04:33N 37°57' W 121°21'0 0.0
2016-Mar-17 03:33N 37°57' W 121°21'0 0.0
2016-Mar-17 02:33N 37°57' W 121°21'0 0.0
2016-Mar-17 01:34N 37°57' W 121°21'2 1.8
2016-Mar-17 00:33N 37°59' W 121°23'8 7.8
2016-Mar-16 23:33N 38°03' W 121°31'32 3.6
2016-Mar-16 14:33N 38°03' W 122°12'6 6.4
2016-Mar-16 13:33N 38°03' W 122°20'7 6.1
2016-Mar-16 12:26N 37°58' W 122°26'6 6.5
2016-Mar-16 11:34N 37°53' W 122°24'5 4.7
2016-Mar-16 10:33N 37°49' W 122°20'2 1.6
2016-Mar-16 09:33N 37°49' W 122°18'0 0.0
2016-Mar-16 08:33N 37°49' W 122°18'0 0.0
2016-Mar-16 07:34N 37°49' W 122°18'0 0.0
2016-Mar-16 06:33N 37°49' W 122°18'0 0.0
2016-Mar-16 05:33N 37°49' W 122°18'0 0.0
2016-Mar-16 04:34N 37°49' W 122°18'0 0.0
2016-Mar-16 03:32N 37°49' W 122°18'0 0.0
2016-Mar-16 02:33N 37°49' W 122°18'0 0.0
2016-Mar-16 01:33N 37°49' W 122°18'0 0.0
2016-Mar-16 00:33N 37°49' W 122°18'0 0.4
2016-Mar-15 23:34N 37°49' W 122°19'1 1.4
2016-Mar-15 22:34N 37°48' W 122°19'3 3.0
2016-Mar-15 21:33N 37°47' W 122°15'0 0.2
2016-Mar-15 20:33N 37°47' W 122°15'1 1.5
2016-Mar-15 19:33N 37°48' W 122°17'2 2.2
2016-Mar-15 18:34N 37°49' W 122°19'1 1.4
2016-Mar-15 17:33N 37°48' W 122°20'0 0.1
2016-Mar-15 16:34N 37°48' W 122°20'0 0.2
2016-Mar-15 15:33N 37°48' W 122°20'0 0.0
2016-Mar-15 14:33N 37°48' W 122°20'0 0.3
2016-Mar-15 13:33N 37°48' W 122°20'2 1.8
2016-Mar-15 12:34N 37°49' W 122°18'0 0.0
2016-Mar-15 11:34N 37°49' W 122°18'  
Track history (hours):
 
Tides and Currents Weather Stations Pressure Air Temp Water Temp Dewpoint Dewpoint Depression Visibility Wind Speed Wind Dir Waves Ship Positions

Silia

Owner: greger pacific marine, napa, CA. More information available from US FCC via Universal Licensing System and Coast Guard Vessel Documentation Center.

Last reported at 2016-Mar-24 22:05 UTC. Time now 2016-May-02 23:13 UTC.
Position N 37°49' W 122°18'.
Warning: this ship's position is 39 days out of date.

Length 17 m; draft 3 m.

Type: Tug. MMSI: 367511460.

Date/timePositionNaut miles runAvg speedWind from/ knotsBaromVisibWave heightAir tempDewpointWater temp
2016-Mar-24 22:05N 37°49' W 122°18'1 1.5
2016-Mar-24 21:33N 37°49' W 122°19'1 1.0
2016-Mar-24 20:33N 37°48' W 122°19'0 0.2
2016-Mar-24 19:34N 37°48' W 122°19'0 0.1
2016-Mar-24 18:33N 37°48' W 122°19'0 0.2
2016-Mar-24 17:33N 37°48' W 122°19'0 0.0
2016-Mar-24 16:33N 37°48' W 122°20'0 0.0
2016-Mar-24 15:34N 37°48' W 122°20'0 0.2
2016-Mar-24 14:33N 37°48' W 122°19'0 0.1
2016-Mar-24 13:33N 37°48' W 122°20'2 0.1
2016-Mar-24 01:33N 37°49' W 122°18'2 1.6
2016-Mar-24 00:33N 37°48' W 122°20'0 0.2
2016-Mar-23 23:33N 37°48' W 122°19'0 0.2
2016-Mar-23 22:34N 37°48' W 122°19'0 0.2
2016-Mar-23 21:33N 37°48' W 122°19'0 0.3
2016-Mar-23 20:33N 37°48' W 122°20'0 0.2
2016-Mar-23 19:33N 37°48' W 122°19'0 0.1
2016-Mar-23 18:33N 37°48' W 122°19'0 0.2
2016-Mar-23 17:33N 37°48' W 122°19'0 0.1
2016-Mar-23 16:33N 37°48' W 122°19'0 0.1
2016-Mar-23 15:33N 37°48' W 122°19'0 0.0
2016-Mar-23 14:34N 37°48' W 122°19'1 1.1
2016-Mar-23 13:33N 37°49' W 122°20'1 0.9
2016-Mar-23 12:33N 37°49' W 122°18'0 0.0
2016-Mar-23 04:20N 37°49' W 122°18'5 6.3
2016-Mar-23 03:34N 37°52' W 122°24'9 8.1
2016-Mar-23 02:23N 38°01' W 122°23'7 3.5
2016-Mar-23 00:25N 38°04' W 122°15'8 7.1
2016-Mar-22 23:18N 38°00' W 122°24'5 6.4
2016-Mar-22 22:33N 37°56' W 122°26'8 8.1
2016-Mar-22 21:33N 37°49' W 122°21'  
2016-Mar-18 07:05N 37°49' W 122°18'0 0.0
2016-Mar-18 06:33N 37°49' W 122°18'0 0.0
2016-Mar-18 05:34N 37°49' W 122°18'3 2.6
2016-Mar-18 04:34N 37°50' W 122°22'6 6.4
2016-Mar-18 03:33N 37°55' W 122°26'0 0.0
2016-Mar-18 02:33N 37°55' W 122°26'0 0.1
2016-Mar-18 01:34N 37°55' W 122°26'11 5.6
2016-Mar-17 23:33N 38°03' W 122°17'36 5.8
2016-Mar-17 17:18N 38°03' W 121°31'5 6.9
2016-Mar-17 16:34N 37°60' W 121°26'4 4.3
2016-Mar-17 15:34N 37°57' W 121°21'0 0.0
2016-Mar-17 14:33N 37°57' W 121°21'0 0.0
2016-Mar-17 13:34N 37°57' W 121°21'0 0.0
2016-Mar-17 12:34N 37°57' W 121°21'0 0.0
2016-Mar-17 11:33N 37°57' W 121°21'0 0.0
2016-Mar-17 10:33N 37°57' W 121°21'0 0.0
2016-Mar-17 09:33N 37°57' W 121°21'0 0.0
2016-Mar-17 08:33N 37°57' W 121°21'0 0.0
2016-Mar-17 07:33N 37°57' W 121°21'0 0.0
2016-Mar-17 06:34N 37°57' W 121°21'0 0.0
2016-Mar-17 05:34N 37°57' W 121°21'0 0.0
2016-Mar-17 04:33N 37°57' W 121°21'0 0.0
2016-Mar-17 03:33N 37°57' W 121°21'0 0.0
2016-Mar-17 02:33N 37°57' W 121°21'0 0.0
2016-Mar-17 01:34N 37°57' W 121°21'2 1.8
2016-Mar-17 00:33N 37°59' W 121°23'8 7.8
2016-Mar-16 23:33N 38°03' W 121°31'32 3.6
2016-Mar-16 14:33N 38°03' W 122°12'6 6.4
2016-Mar-16 13:33N 38°03' W 122°20'7 6.1
2016-Mar-16 12:26N 37°58' W 122°26'6 6.5
2016-Mar-16 11:34N 37°53' W 122°24'5 4.7
2016-Mar-16 10:33N 37°49' W 122°20'2 1.6
2016-Mar-16 09:33N 37°49' W 122°18'0 0.0
2016-Mar-16 08:33N 37°49' W 122°18'0 0.0
2016-Mar-16 07:34N 37°49' W 122°18'0 0.0
2016-Mar-16 06:33N 37°49' W 122°18'0 0.0
2016-Mar-16 05:33N 37°49' W 122°18'0 0.0
2016-Mar-16 04:34N 37°49' W 122°18'0 0.0
2016-Mar-16 03:32N 37°49' W 122°18'0 0.0
2016-Mar-16 02:33N 37°49' W 122°18'0 0.0
2016-Mar-16 01:33N 37°49' W 122°18'0 0.0
2016-Mar-16 00:33N 37°49' W 122°18'0 0.4
2016-Mar-15 23:34N 37°49' W 122°19'1 1.4
2016-Mar-15 22:34N 37°48' W 122°19'3 3.0
2016-Mar-15 21:33N 37°47' W 122°15'0 0.2
2016-Mar-15 20:33N 37°47' W 122°15'1 1.5
2016-Mar-15 19:33N 37°48' W 122°17'2 2.2
2016-Mar-15 18:34N 37°49' W 122°19'1 1.4
2016-Mar-15 17:33N 37°48' W 122°20'0 0.1
2016-Mar-15 16:34N 37°48' W 122°20'0 0.2
2016-Mar-15 15:33N 37°48' W 122°20'0 0.0
2016-Mar-15 14:33N 37°48' W 122°20'0 0.3
2016-Mar-15 13:33N 37°48' W 122°20'2 1.8
2016-Mar-15 12:34N 37°49' W 122°18'0 0.0
2016-Mar-15 11:34N 37°49' W 122°18'  

Dump ship's entire track history